createdAt,value
2018-05-24T00:00:57.473Z,18.59
2018-05-24T00:01:57.440Z,18.52
2018-05-24T00:03:50.420Z,18.52
2018-05-24T00:04:50.363Z,18.50
2018-05-24T00:06:43.454Z,18.55
2018-05-24T00:07:43.215Z,18.47
2018-05-24T00:09:36.190Z,18.47
2018-05-24T00:10:36.150Z,18.38
2018-05-24T00:12:28.963Z,18.43
2018-05-24T00:13:28.931Z,18.47
2018-05-24T00:15:21.984Z,18.45
2018-05-24T00:16:21.939Z,18.43
2018-05-24T00:18:14.938Z,18.43
2018-05-24T00:19:14.871Z,18.43
2018-05-24T00:21:07.852Z,18.40
2018-05-24T00:22:07.865Z,18.43
2018-05-24T00:24:01.148Z,18.35
2018-05-24T00:25:00.979Z,18.34
2018-05-24T00:26:54.016Z,18.31
2018-05-24T00:27:53.961Z,18.31
2018-05-24T00:29:46.953Z,18.35
2018-05-24T00:30:46.900Z,18.33
2018-05-24T00:32:39.730Z,18.35
2018-05-24T00:33:39.688Z,18.33
2018-05-24T00:35:32.601Z,18.40
2018-05-24T00:36:32.475Z,18.35
2018-05-24T00:38:25.478Z,18.43
2018-05-24T00:39:25.436Z,18.44
2018-05-24T00:41:18.431Z,18.53
2018-05-24T00:42:18.402Z,18.49
2018-05-24T00:44:11.467Z,18.49
2018-05-24T00:45:11.282Z,18.49
2018-05-24T00:47:04.417Z,18.62
2018-05-24T00:48:04.258Z,18.60
2018-05-24T00:49:57.258Z,18.63
2018-05-24T00:50:57.212Z,18.60
2018-05-24T00:52:50.269Z,18.56
2018-05-24T00:53:50.085Z,18.59
2018-05-24T00:55:43.154Z,18.62
2018-05-24T00:56:43.043Z,18.63
2018-05-24T00:58:36.030Z,18.58
2018-05-24T00:59:36.005Z,18.53
2018-05-24T01:01:28.844Z,18.56
2018-05-24T01:02:28.785Z,18.58
2018-05-24T01:04:21.828Z,18.53
2018-05-24T01:05:21.600Z,18.52
2018-05-24T01:07:14.597Z,18.53
2018-05-24T01:08:14.558Z,18.49
2018-05-24T01:10:07.612Z,18.45
2018-05-24T01:11:07.558Z,18.47
2018-05-24T01:13:00.410Z,18.41
2018-05-24T01:14:00.393Z,18.45
2018-05-24T01:15:53.395Z,18.41
2018-05-24T01:16:53.186Z,18.34
2018-05-24T01:18:46.191Z,18.28
2018-05-24T01:19:46.237Z,18.33
2018-05-24T01:21:39.239Z,18.23
2018-05-24T01:22:39.192Z,18.29
2018-05-24T01:24:32.204Z,18.15
2018-05-24T01:25:32.170Z,18.25
2018-05-24T01:27:25.215Z,18.29
2018-05-24T01:28:25.185Z,18.26
2018-05-24T01:30:18.342Z,18.19
2018-05-24T01:31:18.269Z,18.29
2018-05-24T01:33:11.274Z,18.20
2018-05-24T01:34:11.226Z,18.10
2018-05-24T01:36:04.079Z,18.10
2018-05-24T01:37:04.034Z,18.11
2018-05-24T01:38:57.219Z,18.10
2018-05-24T01:39:57.182Z,18.08
2018-05-24T01:41:50.186Z,18.18
2018-05-24T01:42:50.276Z,18.23
2018-05-24T01:44:43.397Z,18.26
2018-05-24T01:45:43.326Z,18.26
2018-05-24T01:47:36.348Z,18.26
2018-05-24T01:48:36.295Z,18.25
2018-05-24T01:50:29.263Z,18.33
2018-05-24T01:51:29.237Z,18.25
2018-05-24T01:53:22.332Z,18.28
2018-05-24T01:54:22.272Z,18.33
2018-05-24T01:56:15.092Z,18.29
2018-05-24T01:57:15.066Z,18.34
2018-05-24T01:59:08.100Z,18.34
2018-05-24T02:00:08.047Z,18.29
2018-05-24T02:02:00.901Z,18.22
2018-05-24T02:03:00.879Z,18.22
2018-05-24T02:04:53.871Z,18.25
2018-05-24T02:05:53.834Z,18.25
2018-05-24T02:07:46.826Z,18.15
2018-05-24T02:08:46.882Z,18.19
2018-05-24T02:10:40.009Z,18.11
2018-05-24T02:11:39.935Z,18.15
2018-05-24T02:13:32.951Z,17.83
2018-05-24T02:14:32.896Z,17.80
2018-05-24T02:16:25.720Z,17.80
2018-05-24T02:17:25.685Z,17.71
2018-05-24T02:19:18.535Z,17.65
2018-05-24T02:20:18.462Z,17.63
2018-05-24T02:22:11.528Z,17.67
2018-05-24T02:23:11.313Z,17.60
2018-05-24T02:25:04.297Z,17.59
2018-05-24T02:26:04.254Z,17.51
2018-05-24T02:27:57.264Z,17.48
2018-05-24T02:28:57.299Z,17.56
2018-05-24T02:30:50.668Z,17.41
2018-05-24T02:31:49.991Z,17.48
2018-05-24T02:33:43.008Z,17.46
2018-05-24T02:34:42.820Z,17.38
2018-05-24T02:36:35.789Z,17.33
2018-05-24T02:37:35.738Z,17.45
2018-05-24T02:39:28.718Z,17.34
2018-05-24T02:40:28.669Z,17.41
2018-05-24T02:42:21.987Z,17.36
2018-05-24T02:43:21.956Z,17.38
2018-05-24T02:45:14.974Z,17.31
2018-05-24T02:46:14.892Z,17.29
2018-05-24T02:48:07.767Z,17.33
2018-05-24T02:49:07.735Z,17.20
2018-05-24T02:51:00.717Z,17.26
2018-05-24T02:52:00.661Z,17.19
2018-05-24T02:53:53.700Z,17.19
2018-05-24T02:54:53.731Z,17.16
2018-05-24T02:56:46.924Z,17.19
2018-05-24T02:57:46.723Z,17.15
2018-05-24T02:59:39.710Z,17.19
2018-05-24T03:00:39.668Z,17.23
2018-05-24T03:02:32.668Z,17.27
2018-05-24T03:03:32.604Z,17.19
2018-05-24T03:05:25.598Z,17.27
2018-05-24T03:06:25.538Z,17.26
2018-05-24T03:08:18.513Z,17.14
2018-05-24T03:09:18.485Z,17.14
2018-05-24T03:11:11.488Z,17.06
2018-05-24T03:12:11.505Z,17.14
2018-05-24T03:14:04.589Z,17.11
2018-05-24T03:15:04.542Z,17.09
2018-05-24T03:16:57.597Z,17.16
2018-05-24T03:17:57.555Z,17.15
2018-05-24T03:19:50.804Z,17.23
2018-05-24T03:20:50.668Z,17.24
2018-05-24T03:22:43.672Z,17.24
2018-05-24T03:23:43.609Z,17.31
2018-05-24T03:25:36.480Z,17.29
2018-05-24T03:26:36.575Z,17.23
2018-05-24T03:28:29.728Z,17.26
2018-05-24T03:29:29.582Z,17.29
2018-05-24T03:31:22.569Z,17.38
2018-05-24T03:32:22.559Z,17.38
2018-05-24T03:34:15.510Z,17.38
2018-05-24T03:35:15.573Z,17.39
2018-05-24T03:37:08.304Z,17.31
2018-05-24T03:38:08.293Z,17.34
2018-05-24T03:40:01.260Z,17.42
2018-05-24T03:41:01.210Z,17.38
2018-05-24T03:42:54.383Z,17.39
2018-05-24T03:43:54.343Z,17.42
2018-05-24T03:45:47.176Z,17.34
2018-05-24T03:46:47.134Z,17.36
2018-05-24T03:48:40.041Z,17.36
2018-05-24T03:49:39.929Z,17.36
2018-05-24T03:51:32.988Z,17.39
2018-05-24T03:52:32.874Z,17.36
2018-05-24T03:54:25.844Z,17.33
2018-05-24T03:55:25.798Z,17.41
2018-05-24T03:57:18.934Z,17.42
2018-05-24T03:58:18.850Z,17.31
2018-05-24T04:00:11.869Z,17.24
2018-05-24T04:01:11.824Z,17.26
2018-05-24T04:03:04.868Z,17.24
2018-05-24T04:04:04.810Z,17.27
2018-05-24T04:05:57.773Z,17.33
2018-05-24T04:06:57.596Z,17.24
2018-05-24T04:08:50.638Z,17.31
2018-05-24T04:09:50.590Z,17.29
2018-05-24T04:11:43.575Z,17.23
2018-05-24T04:12:43.545Z,17.34
2018-05-24T04:14:36.653Z,17.24
2018-05-24T04:15:36.460Z,17.29
2018-05-24T04:17:29.520Z,17.24
2018-05-24T04:18:29.460Z,17.29
2018-05-24T04:20:22.433Z,17.30
2018-05-24T04:21:22.406Z,17.27
2018-05-24T04:23:15.258Z,17.23
2018-05-24T04:24:15.178Z,17.20
2018-05-24T04:26:08.155Z,17.14
2018-05-24T04:27:08.104Z,17.06
2018-05-24T04:29:00.975Z,17.05
2018-05-24T04:30:00.924Z,17.12
2018-05-24T04:31:53.904Z,17.02
2018-05-24T04:32:53.908Z,17.06
2018-05-24T04:34:46.983Z,16.93
2018-05-24T04:35:46.748Z,16.96
2018-05-24T04:37:39.690Z,16.76
2018-05-24T04:38:39.659Z,16.74
2018-05-24T04:40:32.656Z,16.75
2018-05-24T04:41:32.632Z,16.76
2018-05-24T04:43:25.821Z,16.72
2018-05-24T04:44:25.749Z,16.69
2018-05-24T04:46:18.598Z,16.69
2018-05-24T04:47:18.539Z,16.78
2018-05-24T04:49:11.541Z,16.74
2018-05-24T04:50:11.478Z,16.75
2018-05-24T04:52:04.627Z,16.71
2018-05-24T04:53:04.561Z,16.69
2018-05-24T04:54:57.553Z,16.81
2018-05-24T04:55:57.498Z,16.75
2018-05-24T04:57:50.478Z,16.69
2018-05-24T04:58:50.448Z,16.71
2018-05-24T05:00:43.459Z,16.68
2018-05-24T05:01:43.280Z,16.75
2018-05-24T05:03:36.154Z,16.69
2018-05-24T05:04:36.055Z,16.69
2018-05-24T05:06:29.130Z,16.75
2018-05-24T05:07:29.184Z,16.68
2018-05-24T05:09:22.333Z,16.81
2018-05-24T05:10:22.235Z,16.78
2018-05-24T05:12:15.235Z,16.86
2018-05-24T05:13:15.185Z,16.87
2018-05-24T05:15:08.194Z,16.96
2018-05-24T05:16:08.130Z,16.94
2018-05-24T05:18:00.988Z,16.94
2018-05-24T05:19:00.987Z,17.01
2018-05-24T05:20:54.003Z,17.05
2018-05-24T05:21:53.949Z,17.11
2018-05-24T05:23:46.941Z,17.09
2018-05-24T05:24:46.906Z,17.09
2018-05-24T05:26:40.140Z,17.15
2018-05-24T05:27:40.054Z,17.16
2018-05-24T05:29:33.041Z,17.20
2018-05-24T05:30:33.110Z,17.29
2018-05-24T05:32:26.491Z,17.20
2018-05-24T05:33:26.163Z,17.24
2018-05-24T05:35:19.160Z,17.23
2018-05-24T05:36:19.119Z,17.24
2018-05-24T05:38:12.253Z,17.24
2018-05-24T05:39:12.090Z,17.24
2018-05-24T05:41:05.208Z,17.24
2018-05-24T05:42:04.980Z,17.29
2018-05-24T05:43:57.970Z,17.24
2018-05-24T05:44:57.938Z,17.30
2018-05-24T05:46:50.986Z,17.24
2018-05-24T05:47:50.937Z,17.38
2018-05-24T05:49:43.897Z,17.41
2018-05-24T05:50:43.840Z,17.34
2018-05-24T05:52:36.831Z,17.31
2018-05-24T05:53:36.771Z,17.39
2018-05-24T05:55:29.595Z,17.33
2018-05-24T05:56:29.734Z,17.36
2018-05-24T05:58:22.885Z,17.45
2018-05-24T05:59:22.641Z,17.52
2018-05-24T06:01:15.535Z,17.46
2018-05-24T06:02:15.495Z,17.56
2018-05-24T06:04:08.501Z,17.64
2018-05-24T06:05:08.522Z,17.57
2018-05-24T06:07:01.749Z,17.70
2018-05-24T06:08:01.579Z,17.74
2018-05-24T06:09:54.560Z,17.78
2018-05-24T06:10:54.552Z,17.82
2018-05-24T06:12:47.519Z,17.86
2018-05-24T06:13:47.502Z,17.87
2018-05-24T06:15:40.322Z,17.86
2018-05-24T06:16:40.281Z,17.92
2018-05-24T06:18:33.322Z,18.03
2018-05-24T06:19:33.247Z,18.00
2018-05-24T06:21:26.236Z,18.03
2018-05-24T06:22:26.213Z,18.08
2018-05-24T06:24:19.482Z,18.23
2018-05-24T06:25:19.363Z,18.19
2018-05-24T06:27:12.324Z,18.15
2018-05-24T06:28:12.301Z,18.25
2018-05-24T06:30:05.321Z,18.25
2018-05-24T06:31:05.267Z,18.34
2018-05-24T06:32:58.517Z,18.33
2018-05-24T06:33:58.456Z,18.37
2018-05-24T06:35:51.284Z,18.40
2018-05-24T06:36:51.332Z,18.44
2018-05-24T06:38:44.097Z,18.45
2018-05-24T06:39:44.047Z,18.49
2018-05-24T06:41:37.183Z,18.58
2018-05-24T06:42:37.138Z,18.68
2018-05-24T06:44:30.158Z,18.59
2018-05-24T06:45:30.230Z,18.62
2018-05-24T06:47:23.426Z,18.59
2018-05-24T06:48:23.242Z,18.71
2018-05-24T06:50:16.227Z,18.74
2018-05-24T06:51:16.182Z,18.70
2018-05-24T06:53:09.147Z,18.68
2018-05-24T06:54:09.124Z,18.78
2018-05-24T06:56:01.963Z,18.89
2018-05-24T06:57:01.920Z,18.93
2018-05-24T06:58:54.939Z,18.96
2018-05-24T06:59:54.922Z,18.96
2018-05-24T07:01:47.814Z,19.11
2018-05-24T07:02:47.821Z,19.14
2018-05-24T07:04:40.853Z,19.24
2018-05-24T07:05:40.812Z,19.27
2018-05-24T07:07:33.733Z,18.99
2018-05-24T07:08:33.582Z,18.92
2018-05-24T07:10:26.423Z,19.15
2018-05-24T07:11:26.382Z,19.22
2018-05-24T07:13:19.394Z,19.34
2018-05-24T07:14:19.448Z,19.21
2018-05-24T07:16:12.657Z,19.31
2018-05-24T07:17:12.548Z,19.29
2018-05-24T07:19:05.536Z,19.36
2018-05-24T07:20:05.545Z,19.36
2018-05-24T07:21:58.787Z,19.34
2018-05-24T07:22:58.649Z,19.44
2018-05-24T07:24:51.477Z,19.34
2018-05-24T07:25:51.443Z,19.48
2018-05-24T07:27:44.436Z,19.62
2018-05-24T07:28:44.434Z,19.47
2018-05-24T07:30:37.708Z,19.30
2018-05-24T07:31:37.550Z,19.37
2018-05-24T07:33:30.559Z,19.52
2018-05-24T07:34:30.509Z,19.52
2018-05-24T07:36:23.357Z,19.71
2018-05-24T07:37:23.312Z,19.64
2018-05-24T07:39:16.524Z,19.85
2018-05-24T07:40:16.447Z,19.86
2018-05-24T07:42:09.422Z,19.99
2018-05-24T07:43:09.382Z,20.03
2018-05-24T07:45:02.854Z,20.04
2018-05-24T07:46:02.598Z,20.07
2018-05-24T07:47:55.602Z,20.04
2018-05-24T08:04:28.479Z,20.74
2018-05-24T08:04:54.802Z,20.82
2018-05-24T08:06:47.801Z,20.69
2018-05-24T08:07:47.735Z,20.78
2018-05-24T08:09:40.881Z,20.85
2018-05-24T08:10:40.838Z,21.02
2018-05-24T08:12:55.774Z,20.93
2018-05-24T08:13:33.757Z,21.03
2018-05-24T08:15:26.581Z,20.88
2018-05-24T08:16:26.558Z,21.06
2018-05-24T08:18:19.826Z,21.21
2018-05-24T08:19:19.651Z,21.20
2018-05-24T08:21:12.640Z,21.11
2018-05-24T08:22:12.611Z,21.06
2018-05-24T08:24:05.610Z,21.21
2018-05-24T08:25:05.564Z,21.24
2018-05-24T08:26:58.436Z,21.43
2018-05-24T08:27:58.353Z,21.46
2018-05-24T08:32:56.091Z,21.57
2018-05-24T08:33:56.030Z,21.66
2018-05-24T08:35:48.861Z,21.73
2018-05-24T08:36:48.827Z,21.69
2018-05-24T08:38:41.812Z,21.72
2018-05-24T08:39:41.770Z,21.83
2018-05-24T08:41:34.595Z,21.60
2018-05-24T08:42:34.573Z,21.88
2018-05-24T08:44:27.566Z,21.91
2018-05-24T08:45:27.518Z,21.73
2018-05-24T08:47:20.491Z,21.95
2018-05-24T08:48:20.452Z,22.17
2018-05-24T08:50:13.687Z,22.25
2018-05-24T08:52:26.582Z,22.25
2018-05-24T08:53:26.628Z,22.44
2018-05-24T08:55:19.492Z,22.54
2018-05-24T08:56:19.451Z,22.75
2018-05-24T08:58:12.417Z,22.80
2018-05-24T08:59:12.384Z,22.88
2018-05-24T09:01:05.232Z,22.73
2018-05-24T09:02:05.172Z,22.83
2018-05-24T09:03:58.173Z,22.87
2018-05-24T09:04:58.125Z,22.90
2018-05-24T09:06:50.957Z,22.73
2018-05-24T09:07:50.933Z,22.63
2018-05-24T09:09:43.907Z,22.88
2018-05-24T09:10:43.865Z,22.87
2018-05-24T09:12:36.839Z,22.80
2018-05-24T09:13:36.833Z,22.72
2018-05-24T09:15:29.643Z,22.70
2018-05-24T09:16:29.593Z,22.91
2018-05-24T09:18:22.447Z,22.87
2018-05-24T09:19:22.402Z,22.98
2018-05-24T09:21:15.398Z,23.03
2018-05-24T09:22:15.353Z,23.00
2018-05-24T09:24:08.652Z,23.10
2018-05-24T09:25:08.626Z,23.20
2018-05-24T09:27:01.658Z,23.32
2018-05-24T09:28:01.606Z,23.32
2018-05-24T09:29:54.645Z,23.40
2018-05-24T09:30:54.612Z,23.36
2018-05-24T09:32:47.507Z,23.62
2018-05-24T09:33:47.453Z,23.65
2018-05-24T09:35:40.444Z,23.43
2018-05-24T09:37:53.682Z,23.68
2018-05-24T09:38:53.652Z,23.92
2018-05-24T09:40:46.697Z,23.91
2018-05-24T09:41:46.644Z,23.98
2018-05-24T09:43:39.623Z,23.95
2018-05-24T09:44:39.598Z,23.95
2018-05-24T09:46:32.901Z,24.01
2018-05-24T09:47:32.713Z,24.16
2018-05-24T09:49:25.684Z,24.29
2018-05-24T09:50:25.654Z,24.28
2018-05-24T09:52:18.648Z,24.38
2018-05-24T09:53:18.604Z,24.48
2018-05-24T09:55:11.518Z,24.80
2018-05-24T09:56:11.480Z,24.81
2018-05-24T09:58:04.475Z,25.10
2018-05-24T09:59:04.423Z,25.36
2018-05-24T10:00:57.439Z,25.88
2018-05-24T10:01:57.388Z,26.09
2018-05-24T10:03:50.593Z,26.40
2018-05-24T10:04:50.491Z,26.66
2018-05-24T10:06:43.485Z,27.07
2018-05-24T10:07:43.463Z,27.12
2018-05-24T10:09:36.456Z,27.25
2018-05-24T10:10:36.523Z,27.22
2018-05-24T10:12:29.454Z,27.21
2018-05-24T10:13:29.361Z,27.26
2018-05-24T10:15:22.335Z,27.83
2018-05-24T10:16:22.407Z,27.75
2018-05-24T10:18:15.320Z,27.71
2018-05-24T10:19:15.284Z,27.82
2018-05-24T10:21:08.275Z,27.98
2018-05-24T10:22:08.259Z,27.95
2018-05-24T10:24:01.413Z,28.14
2018-05-24T10:25:01.374Z,28.38
2018-05-24T10:26:54.217Z,28.30
2018-05-24T10:27:54.191Z,28.49
2018-05-24T10:29:47.204Z,28.22
2018-05-24T10:30:47.141Z,27.96
2018-05-24T10:32:40.164Z,27.85
2018-05-24T10:33:40.145Z,28.23
2018-05-24T10:35:32.994Z,28.42
2018-05-24T10:36:32.961Z,28.42
2018-05-24T10:38:26.019Z,28.56
2018-05-24T10:39:26.038Z,28.78
2018-05-24T10:41:18.935Z,28.78
2018-05-24T10:42:18.900Z,28.84
2018-05-24T10:44:11.994Z,28.64
2018-05-24T10:45:11.966Z,28.49
2018-05-24T10:47:04.932Z,28.51
2018-05-24T10:48:04.900Z,28.33
2018-05-24T10:49:57.894Z,28.19
2018-05-24T10:50:57.979Z,28.08
2018-05-24T10:52:51.033Z,27.58
2018-05-24T10:53:50.959Z,27.36
2018-05-24T10:55:43.910Z,27.07
2018-05-24T10:56:43.770Z,27.22
2018-05-24T10:58:36.767Z,27.45
2018-05-24T10:59:36.847Z,27.40
2018-05-24T11:01:29.937Z,27.58
2018-05-24T11:02:29.821Z,27.45
2018-05-24T11:04:22.851Z,27.65
2018-05-24T11:05:22.813Z,27.63
2018-05-24T11:07:15.796Z,27.58
2018-05-24T11:08:15.756Z,27.68
2018-05-24T11:10:08.731Z,27.60
2018-05-24T11:11:08.591Z,27.48
2018-05-24T11:13:01.609Z,26.63
2018-05-24T11:14:01.591Z,26.85
2018-05-24T11:15:54.425Z,27.21
2018-05-24T11:16:54.465Z,27.40
2018-05-24T11:18:47.252Z,27.39
2018-05-24T11:19:47.186Z,27.58
2018-05-24T11:21:40.119Z,27.58
2018-05-24T11:22:40.066Z,27.52
2018-05-24T11:24:33.046Z,27.75
2018-05-24T11:25:33.023Z,27.37
2018-05-24T11:27:26.012Z,27.20
2018-05-24T11:28:25.960Z,27.39
2018-05-24T11:30:19.146Z,27.35
2018-05-24T11:31:19.050Z,27.51
2018-05-24T11:33:12.047Z,27.65
2018-05-24T11:34:12.016Z,27.60
2018-05-24T11:36:05.016Z,27.60
2018-05-24T11:37:05.013Z,27.67
2018-05-24T11:38:58.064Z,27.55
2018-05-24T11:39:58.026Z,27.60
2018-05-24T11:41:51.008Z,27.45
2018-05-24T11:42:51.018Z,27.47
2018-05-24T11:44:44.204Z,27.63
2018-05-24T11:45:44.082Z,27.37
2018-05-24T11:47:37.087Z,27.20
2018-05-24T11:48:37.062Z,26.88
2018-05-24T11:50:30.459Z,26.85
2018-05-24T11:51:30.347Z,26.75
2018-05-24T11:53:23.343Z,26.07
2018-05-24T11:54:23.302Z,26.37
2018-05-24T11:56:16.292Z,26.77
2018-05-24T11:57:16.268Z,26.65
2018-05-24T11:59:09.297Z,26.73
2018-05-24T12:00:09.260Z,26.81
2018-05-24T12:02:02.233Z,26.96
2018-05-24T12:03:02.205Z,26.97
2018-05-24T12:04:55.190Z,26.71
2018-05-24T12:05:55.137Z,26.78
2018-05-24T12:07:48.187Z,26.75
2018-05-24T12:08:48.128Z,26.88
2018-05-24T12:10:41.117Z,26.78
2018-05-24T12:11:41.219Z,26.75
2018-05-24T12:13:34.407Z,26.88
2018-05-24T12:14:34.297Z,26.90
2018-05-24T12:16:27.132Z,26.59
2018-05-24T12:17:27.092Z,26.51
2018-05-24T12:19:20.172Z,26.73
2018-05-24T12:20:20.102Z,26.59
2018-05-24T12:22:13.032Z,26.33
2018-05-24T12:23:12.995Z,26.44
2018-05-24T12:25:06.035Z,26.29
2018-05-24T12:26:05.994Z,26.23
2018-05-24T12:27:58.968Z,26.22
2018-05-24T12:28:58.948Z,26.22
2018-05-24T12:30:51.813Z,26.19
2018-05-24T12:31:51.778Z,26.00
2018-05-24T12:33:44.806Z,25.53
2018-05-24T12:34:44.749Z,25.44
2018-05-24T12:36:37.732Z,25.62
2018-05-24T12:37:37.752Z,25.69
2018-05-24T12:39:30.953Z,25.91
2018-05-24T12:40:30.803Z,25.83
2018-05-24T12:42:23.794Z,25.63
2018-05-24T12:43:23.758Z,25.72
2018-05-24T12:46:53.478Z,25.72
2018-05-24T12:47:48.787Z,25.88
2018-05-24T12:49:41.699Z,25.75
2018-05-24T12:50:41.639Z,25.80
2018-05-24T12:52:34.637Z,25.81
2018-05-24T12:53:34.615Z,25.75
2018-05-24T12:55:27.462Z,25.73
2018-05-24T12:56:27.418Z,25.77
2018-05-24T12:58:20.379Z,25.75
2018-05-24T12:59:20.374Z,25.75
2018-05-24T13:01:13.349Z,25.65
2018-05-24T13:02:13.278Z,25.75
2018-05-24T13:04:06.433Z,25.70
2018-05-24T13:05:06.374Z,25.65
2018-05-24T13:06:59.373Z,25.65
2018-05-24T13:07:59.310Z,25.66
2018-05-24T13:09:52.845Z,25.70
2018-05-24T13:10:52.400Z,25.69
2018-05-24T13:12:45.403Z,25.54
2018-05-24T13:13:45.343Z,25.65
2018-05-24T13:15:38.198Z,25.69
2018-05-24T13:16:38.149Z,25.70
2018-05-24T13:18:31.127Z,25.55
2018-05-24T13:19:31.102Z,25.62
2018-05-24T13:21:24.064Z,25.50
2018-05-24T13:22:23.927Z,25.53
2018-05-24T13:24:16.943Z,25.38
2018-05-24T13:25:16.878Z,25.36
2018-05-24T13:27:09.872Z,25.43
2018-05-24T13:28:09.834Z,25.43
2018-05-24T13:30:02.949Z,25.32
2018-05-24T13:31:02.894Z,25.36
2018-05-24T13:32:55.870Z,25.26
2018-05-24T13:33:55.831Z,25.36
2018-05-24T13:35:48.666Z,25.40
2018-05-24T13:36:48.650Z,25.40
2018-05-24T13:38:41.932Z,25.28
2018-05-24T13:39:41.900Z,25.26
2018-05-24T13:41:34.748Z,25.32
2018-05-24T13:42:34.719Z,25.36
2018-05-24T13:44:27.691Z,25.16
2018-05-24T13:45:27.642Z,25.29
2018-05-24T13:47:20.484Z,25.14
2018-05-24T13:48:20.429Z,25.17
2018-05-24T13:50:13.437Z,25.18
2018-05-24T13:51:13.413Z,25.23
2018-05-24T13:53:06.385Z,25.25
2018-05-24T13:54:06.353Z,25.28
2018-05-24T13:55:59.496Z,25.16
2018-05-24T13:56:59.447Z,25.18
2018-05-24T13:58:52.454Z,25.23
2018-05-24T13:59:52.385Z,25.23
2018-05-24T14:01:45.464Z,25.25
2018-05-24T14:02:45.344Z,25.28
2018-05-24T14:04:38.177Z,25.31
2018-05-24T14:05:38.132Z,25.23
2018-05-24T14:07:31.122Z,25.35
2018-05-24T14:08:31.091Z,25.21
2018-05-24T14:10:24.599Z,25.25
2018-05-24T14:11:24.064Z,25.16
2018-05-24T14:13:18.239Z,25.28
2018-05-24T14:14:18.196Z,25.36
2018-05-24T14:16:11.608Z,25.41
2018-05-24T14:17:11.289Z,25.38
2018-05-24T14:19:04.494Z,25.41
2018-05-24T14:20:04.416Z,25.35
2018-05-24T14:21:57.248Z,25.26
2018-05-24T14:22:57.210Z,25.14
2018-05-24T14:24:50.225Z,25.28
2018-05-24T14:25:50.166Z,25.47
2018-05-24T14:27:43.013Z,25.60
2018-05-24T14:28:42.982Z,25.69
2018-05-24T14:30:36.015Z,25.93
2018-05-24T14:31:35.917Z,26.02
2018-05-24T14:33:28.909Z,26.38
2018-05-24T14:34:28.971Z,26.70
2018-05-24T14:36:22.198Z,27.42
2018-05-24T14:37:21.997Z,27.55
2018-05-24T14:39:14.845Z,28.00
2018-05-24T14:40:14.811Z,28.37
2018-05-24T14:42:07.830Z,28.94
2018-05-24T14:43:07.799Z,29.27
2018-05-24T14:45:01.056Z,29.61
2018-05-24T14:46:00.890Z,29.78
2018-05-24T14:47:53.702Z,29.91
2018-05-24T14:48:53.686Z,29.91
2018-05-24T14:50:46.681Z,29.72
2018-05-24T14:51:46.671Z,29.88
2018-05-24T14:53:39.783Z,30.18
2018-05-24T14:54:39.757Z,30.23
2018-05-24T14:56:32.617Z,30.12
2018-05-24T14:57:32.583Z,29.88
2018-05-24T14:59:25.669Z,30.39
2018-05-24T15:00:25.638Z,30.47
2018-05-24T15:02:18.487Z,30.65
2018-05-24T15:03:18.463Z,30.61
2018-05-24T15:05:11.313Z,30.43
2018-05-24T15:06:11.268Z,30.48
2018-05-24T15:08:04.277Z,30.87
2018-05-24T15:09:04.229Z,30.91
2018-05-24T15:10:57.675Z,30.54
2018-05-24T15:11:57.528Z,30.91
2018-05-24T15:13:50.392Z,30.90
2018-05-24T15:14:50.361Z,30.61
2018-05-24T15:16:43.337Z,30.53
2018-05-24T15:17:43.319Z,30.66
2018-05-24T15:19:36.183Z,29.66
2018-05-24T15:20:36.132Z,29.72
2018-05-24T15:22:29.123Z,29.66
2018-05-24T15:23:29.083Z,29.54
2018-05-24T15:25:21.909Z,29.42
2018-05-24T15:26:21.896Z,29.73
2018-05-24T15:28:14.967Z,30.15
2018-05-24T15:29:14.909Z,30.09
2018-05-24T15:31:07.928Z,30.53
2018-05-24T15:32:07.898Z,30.43
2018-05-24T15:34:00.896Z,30.62
2018-05-24T15:35:00.854Z,30.83
2018-05-24T15:36:54.093Z,30.97
2018-05-24T15:37:53.973Z,31.14
2018-05-24T15:39:47.013Z,30.92
2018-05-24T15:40:47.029Z,30.54
2018-05-24T15:42:39.994Z,30.35
2018-05-24T15:43:39.960Z,30.27
2018-05-24T15:45:32.963Z,30.12
2018-05-24T15:46:32.818Z,30.10
2018-05-24T15:48:25.864Z,29.98
2018-05-24T15:49:25.788Z,29.78
2018-05-24T15:51:18.775Z,29.86
2018-05-24T15:52:18.758Z,30.00
2018-05-24T15:54:11.719Z,30.18
2018-05-24T15:55:11.589Z,30.23
2018-05-24T15:57:04.441Z,30.28
2018-05-24T15:58:04.399Z,30.32
2018-05-24T15:59:57.426Z,30.78
2018-05-24T16:00:57.549Z,30.83
2018-05-24T16:02:50.369Z,30.92
2018-05-24T16:03:50.336Z,30.69
2018-05-24T16:05:43.324Z,31.12
2018-05-24T16:06:43.150Z,31.18
2018-05-24T16:08:36.168Z,31.40
2018-05-24T16:09:36.133Z,31.51
2018-05-24T16:11:29.184Z,31.87
2018-05-24T16:12:29.116Z,31.65
2018-05-24T16:14:22.116Z,31.54
2018-05-24T16:15:21.968Z,31.52
2018-05-24T16:17:14.960Z,31.39
2018-05-24T16:18:14.945Z,31.18
2018-05-24T16:20:08.122Z,31.06
2018-05-24T16:21:07.947Z,31.03
2018-05-24T16:23:00.809Z,30.91
2018-05-24T16:24:00.782Z,30.87
2018-05-24T16:25:53.685Z,30.57
2018-05-24T16:26:53.608Z,30.46
2018-05-24T16:28:46.595Z,30.23
2018-05-24T16:29:46.566Z,30.12
2018-05-24T16:31:39.417Z,30.03
2018-05-24T16:32:39.481Z,29.78
2018-05-24T16:34:32.224Z,29.61
2018-05-24T16:35:32.201Z,29.31
2018-05-24T16:37:25.205Z,29.20
2018-05-24T16:38:25.167Z,29.02
2018-05-24T16:40:18.151Z,28.81
2018-05-24T16:41:18.122Z,28.57
2018-05-24T16:43:11.366Z,28.41
2018-05-24T16:44:11.270Z,28.27
2018-05-24T16:46:04.118Z,28.05
2018-05-24T16:47:04.066Z,27.89
2018-05-24T16:48:57.156Z,27.83
2018-05-24T16:49:57.112Z,27.83
2018-05-24T16:51:50.017Z,27.63
2018-05-24T16:52:49.986Z,27.68
2018-05-24T16:54:42.953Z,27.47
2018-05-24T16:55:42.927Z,27.51
2018-05-24T16:57:35.945Z,27.51
2018-05-24T16:58:35.917Z,27.42
2018-05-24T17:00:29.063Z,27.17
2018-05-24T17:01:29.005Z,27.22
2018-05-24T17:03:22.011Z,26.99
2018-05-24T17:04:21.948Z,27.00
2018-05-24T17:06:14.788Z,27.00
2018-05-24T17:07:14.767Z,27.02
2018-05-24T17:09:07.948Z,27.12
2018-05-24T17:10:07.858Z,27.15
2018-05-24T17:12:00.713Z,27.22
2018-05-24T17:13:00.667Z,27.20
2018-05-24T17:14:53.656Z,27.02
2018-05-24T17:15:53.643Z,26.92
2018-05-24T17:17:46.747Z,26.65
2018-05-24T17:18:46.758Z,26.55
2018-05-24T17:20:39.736Z,26.74
2018-05-24T17:21:39.672Z,26.74
2018-05-24T17:23:33.135Z,26.74
2018-05-24T17:24:32.474Z,26.70
2018-05-24T17:26:25.793Z,26.31
2018-05-24T17:27:25.779Z,26.23
2018-05-24T17:29:18.773Z,26.16
2018-05-24T17:30:18.722Z,26.26
2018-05-24T17:32:11.887Z,26.22
2018-05-24T17:33:11.799Z,26.02
2018-05-24T17:35:04.791Z,26.00
2018-05-24T17:36:04.746Z,26.00
2018-05-24T17:37:57.741Z,25.84
2018-05-24T17:38:57.723Z,25.81
2018-05-24T17:40:50.790Z,25.69
2018-05-24T17:41:50.707Z,25.68
2018-05-24T17:43:43.698Z,25.53
2018-05-24T17:44:43.640Z,25.36
2018-05-24T17:46:36.598Z,25.25
2018-05-24T17:47:36.577Z,25.22
2018-05-24T17:49:29.616Z,25.01
2018-05-24T17:50:29.570Z,25.03
2018-05-24T17:52:22.554Z,24.77
2018-05-24T17:53:22.549Z,24.63
2018-05-24T17:55:15.489Z,24.61
2018-05-24T17:56:15.460Z,24.61
2018-05-24T17:58:08.414Z,24.61
2018-05-24T17:59:08.297Z,24.60
2018-05-24T18:01:01.299Z,24.38
2018-05-24T18:02:01.257Z,24.43
2018-05-24T18:03:54.239Z,24.35
2018-05-24T18:04:54.203Z,24.38
2018-05-24T18:06:47.319Z,24.35
2018-05-24T18:07:47.256Z,24.26
2018-05-24T18:09:40.078Z,24.13
2018-05-24T18:10:40.068Z,24.08
2018-05-24T18:12:33.067Z,23.95
2018-05-24T18:13:33.014Z,24.03
2018-05-24T18:15:25.983Z,23.93
2018-05-24T18:16:25.922Z,23.84
2018-05-24T18:18:18.903Z,23.74
2018-05-24T18:19:18.874Z,23.77
2018-05-24T18:21:11.917Z,23.69
2018-05-24T18:22:11.854Z,23.66
2018-05-24T18:24:05.094Z,23.50
2018-05-24T18:25:04.918Z,23.48
2018-05-24T18:26:58.487Z,23.50
2018-05-24T18:27:57.878Z,23.39
2018-05-24T18:29:51.003Z,23.27
2018-05-24T18:30:50.959Z,23.21
2018-05-24T18:32:43.943Z,23.10
2018-05-24T18:33:43.910Z,23.08
2018-05-24T18:35:36.875Z,22.99
2018-05-24T18:36:36.910Z,23.06
2018-05-24T18:38:30.104Z,23.00
2018-05-24T18:39:29.963Z,22.96
2018-05-24T18:41:22.934Z,22.93
2018-05-24T18:42:22.889Z,22.91
2018-05-24T18:44:15.913Z,22.87
2018-05-24T18:45:15.843Z,22.84
2018-05-24T18:47:08.675Z,22.83
2018-05-24T18:48:08.660Z,22.78
2018-05-24T18:50:01.638Z,22.72
2018-05-24T18:51:01.591Z,22.76
2018-05-24T18:52:54.559Z,22.66
2018-05-24T18:53:54.578Z,22.66